Time;durP1;ratioP1;P1;durP2;ratioP2;P2;SDS_P1;SDS_P2;PMS_P1;PMS_P2;Temp;Humidity;BMP_temperature;BMP_pressure;BME280_temperature;BME280_humidity;BME280_pressure;Samples;Min_cycle;Max_cycle;Signal;HPM_P1;HPM_P2
2021/04/03 00:00:42;;;;;;;4.35;1.38;;;9.40;63.80;;;;;;5004491;28;20029;-62
2021/04/03 00:03:10;;;;;;;3.35;1.50;;;9.40;64.00;;;;;;5003477;28;20038;-64
2021/04/03 00:05:37;;;;;;;3.78;1.52;;;9.40;64.20;;;;;;4983001;28;20147;-62
2021/04/03 00:08:04;;;;;;;3.75;1.30;;;9.40;64.20;;;;;;4999992;28;20025;-61
2021/04/03 00:11:09;;;;;;;4.60;1.20;;;9.50;64.00;;;;;;4983429;28;20036;-61
2021/04/03 00:13:39;;;;;;;6.18;1.17;;;9.40;64.20;;;;;;4923818;29;20049;-61
2021/04/03 00:16:05;;;;;;;3.42;1.17;;;9.40;64.60;;;;;;4919963;29;20031;-61
2021/04/03 00:18:31;;;;;;;4.72;2.15;;;9.50;64.10;;;;;;4930663;29;20094;-61
2021/04/03 00:20:57;;;;;;;3.65;1.38;;;9.50;63.80;;;;;;4930622;28;20060;-61
2021/04/03 00:23:23;;;;;;;4.70;1.30;;;9.30;64.30;;;;;;4913869;29;20469;-59
2021/04/03 00:25:50;;;;;;;2.83;1.38;;;9.20;64.80;;;;;;4932629;28;20094;-62
2021/04/03 00:28:17;;;;;;;4.00;1.20;;;9.30;64.90;;;;;;4964221;28;20082;-59
2021/04/03 00:30:42;;;;;;;6.95;1.48;;;9.30;65.00;;;;;;4916927;29;20043;-61
2021/04/03 00:33:09;;;;;;;3.95;2.17;;;9.10;65.00;;;;;;4965711;28;20117;-60
2021/04/03 00:35:39;;;;;;;3.35;1.40;;;9.20;65.20;;;;;;4952732;28;20129;-60
2021/04/03 00:38:07;;;;;;;2.92;1.42;;;9.30;65.20;;;;;;4923694;29;20491;-61
2021/04/03 00:40:39;;;;;;;3.42;1.23;;;9.40;65.50;;;;;;4949886;28;20043;-61
2021/04/03 00:43:25;;;;;;;6.68;2.70;;;9.40;64.80;;;;;;4944810;29;20023;-60
2021/04/03 00:45:51;;;;;;;3.35;1.70;;;9.30;64.80;;;;;;4991164;28;20431;-60
2021/04/03 00:48:18;;;;;;;3.42;1.08;;;9.30;65.20;;;;;;4992206;28;20394;-61
2021/04/03 00:50:47;;;;;;;3.85;1.23;;;9.20;65.30;;;;;;5010512;28;20107;-61
2021/04/03 00:53:27;;;;;;;5.68;1.52;;;9.40;65.50;;;;;;4991887;28;20076;-61
2021/04/03 00:55:54;;;;;;;7.18;1.48;;;9.20;65.40;;;;;;5009707;28;20028;-60
2021/04/03 00:58:21;;;;;;;6.53;1.40;;;9.10;66.10;;;;;;5009512;28;20100;-61
2021/04/03 01:00:48;;;;;;;7.53;1.63;;;9.10;66.20;;;;;;5010060;28;20395;-61
2021/04/03 01:03:15;;;;;;;3.28;1.50;;;9.30;66.00;;;;;;4991652;28;20080;-60
2021/04/03 01:05:41;;;;;;;5.57;1.60;;;9.20;65.90;;;;;;4992410;28;20471;-60
2021/04/03 01:08:06;;;;;;;4.25;1.60;;;9.10;66.60;;;;;;4992370;28;20092;-61
2021/04/03 01:10:35;;;;;;;6.35;2.55;;;9.20;66.40;;;;;;4976030;28;20064;-60
2021/04/03 01:13:29;;;;;;;3.10;1.77;;;9.30;66.30;;;;;;5000780;28;20030;-61
2021/04/03 01:16:32;;;;;;;3.92;1.88;;;9.30;66.40;;;;;;4983518;28;20030;-61
2021/04/03 01:19:09;;;;;;;4.10;1.80;;;9.30;66.50;;;;;;4987977;28;20088;-61
2021/04/03 01:22:09;;;;;;;3.58;1.63;;;9.20;66.90;;;;;;4989842;28;20041;-61
2021/04/03 01:24:53;;;;;;;4.53;1.75;;;9.20;67.20;;;;;;4992482;28;20061;-61
2021/04/03 01:27:24;;;;;;;9.52;2.22;;;9.10;67.30;;;;;;4995476;28;20057;-61
2021/04/03 01:30:05;;;;;;;7.95;1.65;;;9.20;67.30;;;;;;5013207;28;20080;-61
2021/04/03 01:32:54;;;;;;;4.97;1.55;;;9.20;67.70;;;;;;4993709;28;20387;-61
2021/04/03 01:35:38;;;;;;;4.78;1.67;;;9.10;68.20;;;;;;5011548;28;20087;-61
2021/04/03 01:38:22;;;;;;;8.00;2.28;;;9.10;68.00;;;;;;4995766;28;20085;-61
2021/04/03 01:40:49;;;;;;;7.05;2.10;;;9.10;68.40;;;;;;4994252;28;20026;-61
2021/04/03 01:43:20;;;;;;;8.68;1.95;;;9.20;67.90;;;;;;4995244;28;20054;-62
2021/04/03 01:45:49;;;;;;;4.05;1.88;;;9.00;68.50;;;;;;4994195;28;20137;-61
2021/04/03 01:48:17;;;;;;;4.10;1.55;;;9.10;68.50;;;;;;4995160;28;20070;-61
2021/04/03 01:50:44;;;;;;;4.57;2.10;;;9.20;68.30;;;;;;4993969;28;20386;-62
2021/04/03 01:53:10;;;;;;;3.90;1.55;;;9.30;68.20;;;;;;5013159;28;20032;-60
2021/04/03 01:55:53;;;;;;;6.78;2.45;;;9.30;68.20;;;;;;4994371;28;20026;-60
2021/04/03 01:58:21;;;;;;;6.28;2.42;;;9.30;68.30;;;;;;5003305;28;20075;-61
2021/04/03 02:00:47;;;;;;;6.40;1.90;;;9.20;68.50;;;;;;4989338;28;20032;-61
2021/04/03 02:03:13;;;;;;;6.05;2.40;;;9.20;68.90;;;;;;5012172;28;20129;-61
2021/04/03 02:05:41;;;;;;;3.90;2.40;;;9.20;68.90;;;;;;5013052;28;20045;-61
2021/04/03 02:08:08;;;;;;;3.97;2.25;;;9.20;69.40;;;;;;5013049;28;20054;-62
2021/04/03 02:10:35;;;;;;;4.18;1.80;;;9.20;69.50;;;;;;5012643;28;20460;-61
2021/04/03 02:13:03;;;;;;;4.20;1.98;;;9.20;69.50;;;;;;5013278;28;20049;-61
2021/04/03 02:15:29;;;;;;;8.07;2.08;;;9.10;69.90;;;;;;4995032;28;20405;-61
2021/04/03 02:17:57;;;;;;;7.20;2.55;;;9.10;70.00;;;;;;5012857;28;20481;-61
2021/04/03 02:20:25;;;;;;;6.18;2.33;;;9.00;70.00;;;;;;5012326;28;20030;-61
2021/04/03 02:22:51;;;;;;;2.97;2.20;;;9.00;70.50;;;;;;5012907;28;20034;-60
2021/04/03 02:25:17;;;;;;;3.42;1.92;;;9.10;70.30;;;;;;4994526;28;20171;-60
2021/04/03 02:27:44;;;;;;;4.40;1.98;;;9.10;70.70;;;;;;4994941;28;20103;-60
2021/04/03 02:30:16;;;;;;;4.18;2.55;;;9.10;70.60;;;;;;5012279;28;20057;-60
2021/04/03 02:32:56;;;;;;;4.75;2.08;;;9.10;70.80;;;;;;5013009;28;20051;-60
2021/04/03 02:35:24;;;;;;;6.95;2.45;;;9.00;71.10;;;;;;4994713;28;20045;-61
2021/04/03 02:37:57;;;;;;;6.75;1.80;;;9.20;70.60;;;;;;5012276;28;20185;-61
2021/04/03 02:40:25;;;;;;;6.30;2.22;;;9.00;71.20;;;;;;5012106;28;20034;-61
2021/04/03 02:43:08;;;;;;;5.72;2.53;;;9.00;71.70;;;;;;5012620;28;20533;-61
2021/04/03 02:45:43;;;;;;;8.23;2.72;;;8.90;71.70;;;;;;5011972;28;20040;-62
2021/04/03 02:48:17;;;;;;;4.10;1.95;;;8.80;72.70;;;;;;4994813;28;20073;-61
2021/04/03 02:50:45;;;;;;;4.85;2.38;;;8.70;72.60;;;;;;5012371;28;20431;-60
2021/04/03 02:53:16;;;;;;;7.43;2.20;;;8.60;73.20;;;;;;4994439;28;20120;-61
2021/04/03 02:55:47;;;;;;;6.38;2.55;;;8.60;73.20;;;;;;5012231;28;20395;-61
2021/04/03 02:58:17;;;;;;;6.60;1.80;;;8.60;73.40;;;;;;4994183;28;20539;-60
2021/04/03 03:00:50;;;;;;;6.88;3.10;;;8.70;73.20;;;;;;4994888;28;20669;-59
2021/04/03 03:03:16;;;;;;;8.25;2.40;;;8.60;73.70;;;;;;4994244;28;20026;-61
2021/04/03 03:05:44;;;;;;;4.18;2.00;;;8.60;74.30;;;;;;5011837;28;20053;-61
2021/04/03 03:08:12;;;;;;;4.40;1.75;;;8.40;74.20;;;;;;5011731;28;20107;-61
2021/04/03 03:10:38;;;;;;;7.22;2.20;;;8.40;75.40;;;;;;5011807;28;20489;-61
2021/04/03 03:13:07;;;;;;;3.70;2.15;;;8.40;75.20;;;;;;5012123;28;20030;-60
2021/04/03 03:15:33;;;;;;;4.75;2.20;;;8.40;76.10;;;;;;5011390;28;20483;-61
2021/04/03 03:18:00;;;;;;;6.22;2.28;;;8.40;75.70;;;;;;4994240;28;20460;-60
2021/04/03 03:20:27;;;;;;;9.98;2.63;;;8.30;75.90;;;;;;4993481;28;20037;-61
2021/04/03 03:22:54;;;;;;;10.68;2.08;;;8.40;75.70;;;;;;4994275;28;20113;-61
2021/04/03 03:25:20;;;;;;;8.75;3.22;;;8.30;76.00;;;;;;4993305;28;20029;-60
2021/04/03 03:27:47;;;;;;;4.72;2.45;;;8.30;76.00;;;;;;5011849;28;20060;-60
2021/04/03 03:30:17;;;;;;;7.13;2.95;;;8.20;76.60;;;;;;5011868;28;20053;-60
2021/04/03 03:32:43;;;;;;;4.10;2.42;;;8.20;76.80;;;;;;4994114;28;20022;-61
2021/04/03 03:35:09;;;;;;;7.95;3.45;;;8.30;77.10;;;;;;4993881;28;20056;-61
2021/04/03 03:37:35;;;;;;;6.45;2.30;;;8.40;77.00;;;;;;5011320;28;20152;-60
2021/04/03 03:40:03;;;;;;;4.68;2.30;;;8.40;77.20;;;;;;5010982;28;20061;-61
2021/04/03 03:42:29;;;;;;;3.42;1.73;;;8.40;76.90;;;;;;5010889;28;20025;-60
2021/04/03 03:44:56;;;;;;;8.13;1.90;;;8.40;77.30;;;;;;5011604;28;20142;-59
2021/04/03 03:47:22;;;;;;;5.18;2.25;;;8.30;77.40;;;;;;4992968;28;20026;-61
2021/04/03 03:49:47;;;;;;;3.80;1.70;;;8.30;77.70;;;;;;4993653;28;20456;-61
2021/04/03 03:52:13;;;;;;;5.55;2.10;;;8.30;77.90;;;;;;5010942;28;20026;-61
2021/04/03 03:54:39;;;;;;;7.47;2.70;;;8.20;77.80;;;;;;5010683;28;20108;-61
2021/04/03 03:57:05;;;;;;;7.22;2.33;;;8.10;78.60;;;;;;4993693;28;20375;-60
2021/04/03 03:59:31;;;;;;;3.95;1.98;;;8.10;78.70;;;;;;4992863;28;20049;-60
2021/04/03 04:01:57;;;;;;;5.97;1.83;;;8.20;78.50;;;;;;5010812;28;20026;-60
2021/04/03 04:04:22;;;;;;;4.72;2.60;;;8.20;78.60;;;;;;5010575;28;20025;-61
2021/04/03 04:06:48;;;;;;;3.05;1.52;;;8.10;78.80;;;;;;5010520;28;20041;-60
2021/04/03 04:09:14;;;;;;;11.75;2.92;;;8.20;78.40;;;;;;5011043;28;20034;-61
2021/04/03 04:11:40;;;;;;;5.05;2.00;;;8.10;78.90;;;;;;5010131;28;20101;-60
2021/04/03 04:14:05;;;;;;;5.57;2.60;;;8.20;78.90;;;;;;5010615;28;20034;-60
2021/04/03 04:16:31;;;;;;;5.95;3.15;;;8.10;78.70;;;;;;4992628;28;20075;-59
2021/04/03 04:18:56;;;;;;;7.00;2.30;;;7.90;79.50;;;;;;5010876;28;20030;-61
2021/04/03 04:21:24;;;;;;;10.25;2.60;;;8.00;79.30;;;;;;5010178;28;20159;-60
2021/04/03 04:23:49;;;;;;;6.65;2.35;;;8.00;79.40;;;;;;5010848;28;20060;-60
2021/04/03 04:26:16;;;;;;;5.00;1.92;;;8.00;79.60;;;;;;5010405;28;20034;-61
2021/04/03 04:28:42;;;;;;;6.00;1.67;;;8.00;79.80;;;;;;4992561;28;20030;-61
2021/04/03 04:31:08;;;;;;;5.40;2.30;;;8.00;80.00;;;;;;5010658;28;20086;-60
2021/04/03 04:33:33;;;;;;;7.82;1.83;;;8.00;79.80;;;;;;4992465;28;20034;-61
2021/04/03 04:35:59;;;;;;;4.35;1.95;;;8.00;80.00;;;;;;5010516;28;20472;-60
2021/04/03 04:38:25;;;;;;;6.40;2.80;;;8.00;80.50;;;;;;5009752;28;20053;-60
2021/04/03 04:40:51;;;;;;;3.70;2.33;;;8.10;80.10;;;;;;4993117;28;20415;-60
2021/04/03 04:43:21;;;;;;;5.35;2.70;;;8.10;80.20;;;;;;5010567;28;20529;-60
2021/04/03 04:45:47;;;;;;;9.13;2.65;;;8.10;79.90;;;;;;5010645;28;20498;-61
2021/04/03 04:48:12;;;;;;;6.22;2.15;;;8.00;80.60;;;;;;5010496;28;20034;-62
2021/04/03 04:50:38;;;;;;;7.55;2.20;;;8.00;80.80;;;;;;4994369;28;20040;-61
2021/04/03 04:53:06;;;;;;;6.93;2.35;;;8.10;80.60;;;;;;5014838;28;20022;-61
2021/04/03 04:55:33;;;;;;;7.28;2.50;;;8.00;81.00;;;;;;5013967;28;20136;-61
2021/04/03 04:57:59;;;;;;;6.00;1.92;;;8.00;81.00;;;;;;4980495;28;20135;-61
2021/04/03 05:00:25;;;;;;;7.53;2.00;;;8.00;80.70;;;;;;5013533;28;20022;-61
2021/04/03 05:02:51;;;;;;;9.48;2.58;;;8.10;81.20;;;;;;5014510;28;20034;-60
2021/04/03 05:05:17;;;;;;;6.30;2.20;;;8.00;80.70;;;;;;4996578;28;20038;-61
2021/04/03 05:07:42;;;;;;;4.57;2.50;;;7.90;81.20;;;;;;5013259;28;20026;-61
2021/04/03 05:10:09;;;;;;;6.03;2.65;;;8.10;81.10;;;;;;4996696;28;20025;-61
2021/04/03 05:12:34;;;;;;;4.35;2.28;;;8.10;81.00;;;;;;5013462;28;20030;-61
2021/04/03 05:15:00;;;;;;;3.95;2.28;;;8.20;81.10;;;;;;4996337;28;20056;-61
2021/04/03 05:17:26;;;;;;;5.22;2.45;;;8.00;81.20;;;;;;5013644;28;20112;-60
2021/04/03 05:19:51;;;;;;;5.40;2.58;;;7.90;81.90;;;;;;5014124;28;20026;-60
2021/04/03 05:22:17;;;;;;;5.10;2.08;;;8.00;81.60;;;;;;4996219;28;20225;-60
2021/04/03 05:24:42;;;;;;;8.50;2.80;;;8.00;81.40;;;;;;5012841;28;20018;-61
2021/04/03 05:27:08;;;;;;;8.77;2.42;;;7.90;81.40;;;;;;5013839;28;20092;-60
2021/04/03 05:29:34;;;;;;;6.90;2.03;;;8.00;81.20;;;;;;5013317;28;20065;-60
2021/04/03 05:31:59;;;;;;;9.65;2.92;;;8.10;80.70;;;;;;5013868;28;20029;-61
2021/04/03 05:34:25;;;;;;;6.72;3.08;;;7.90;80.70;;;;;;4995365;28;20022;-61
2021/04/03 05:36:50;;;;;;;10.18;2.10;;;7.90;80.90;;;;;;5013648;28;20096;-60
2021/04/03 05:39:16;;;;;;;9.60;2.35;;;7.70;81.40;;;;;;5013715;28;20042;-61
2021/04/03 05:41:42;;;;;;;5.97;2.63;;;7.70;81.90;;;;;;5012771;28;20044;-60
2021/04/03 05:44:10;;;;;;;7.13;2.38;;;7.80;81.80;;;;;;5013881;28;20069;-60
2021/04/03 05:46:41;;;;;;;7.55;2.35;;;7.80;81.90;;;;;;4995087;28;20060;-60
2021/04/03 05:49:07;;;;;;;5.40;2.20;;;7.90;81.90;;;;;;4995656;28;20456;-61
2021/04/03 05:51:33;;;;;;;8.90;3.03;;;7.40;83.50;;;;;;4995133;28;20040;-63
2021/04/03 05:54:02;;;;;;;8.60;3.47;;;7.60;83.00;;;;;;5013223;28;20022;-60
2021/04/03 05:56:29;;;;;;;13.52;3.22;;;7.60;83.10;;;;;;5012815;28;20036;-62
2021/04/03 05:58:56;;;;;;;8.75;2.22;;;7.60;84.00;;;;;;5012829;28;20100;-60
2021/04/03 06:01:21;;;;;;;7.03;2.85;;;7.50;84.10;;;;;;4994987;28;20041;-61
2021/04/03 06:03:47;;;;;;;8.85;2.33;;;7.60;83.50;;;;;;4994678;28;20030;-62
2021/04/03 06:06:13;;;;;;;9.05;2.45;;;7.40;83.90;;;;;;4995307;28;20125;-62
2021/04/03 06:08:39;;;;;;;8.55;2.50;;;7.50;84.10;;;;;;4994866;28;20036;-61
2021/04/03 06:11:21;;;;;;;10.93;3.40;;;7.60;83.70;;;;;;5013156;28;20459;-61
2021/04/03 06:13:56;;;;;;;8.32;2.85;;;7.80;82.90;;;;;;4994831;28;20034;-61
2021/04/03 06:16:32;;;;;;;7.50;2.05;;;7.90;82.50;;;;;;4995491;28;20092;-61
2021/04/03 06:19:16;;;;;;;14.57;2.45;;;8.00;82.00;;;;;;5013106;28;20499;-61
2021/04/03 06:21:57;;;;;;;11.88;2.83;;;8.00;82.00;;;;;;5012365;28;20188;-62
2021/04/03 06:24:24;;;;;;;6.30;3.15;;;7.90;82.60;;;;;;4995361;28;20026;-60
2021/04/03 06:27:06;;;;;;;9.40;2.40;;;8.00;82.00;;;;;;5012688;28;20096;-61
2021/04/03 06:29:42;;;;;;;;;;;8.10;82.10;;;;;;4994957;28;20034;-62
2021/04/03 06:32:10;;;;;;;6.75;2.20;;;8.20;82.00;;;;;;5012775;28;19913;-60
2021/04/03 06:34:44;;;;;;;8.80;3.97;;;8.40;81.70;;;;;;4994191;28;20110;-61
2021/04/03 06:37:10;;;;;;;10.43;2.35;;;8.50;80.80;;;;;;5012284;28;20125;-61
2021/04/03 06:40:03;;;;;;;10.73;3.20;;;8.60;80.80;;;;;;4994170;28;20049;-61
2021/04/03 06:42:46;;;;;;;5.80;1.90;;;8.70;80.70;;;;;;4994341;28;20379;-61
2021/04/03 06:45:31;;;;;;;10.35;2.10;;;9.00;79.10;;;;;;5012577;28;20364;-62
2021/04/03 06:48:08;;;;;;;10.13;2.83;;;9.20;78.30;;;;;;4994783;28;20102;-61
2021/04/03 06:50:38;;;;;;;10.52;2.40;;;9.60;77.10;;;;;;4994060;28;20022;-61
2021/04/03 06:53:07;;;;;;;6.57;2.42;;;9.40;76.40;;;;;;4994741;28;20466;-61
2021/04/03 06:55:34;;;;;;;6.47;2.08;;;9.50;76.40;;;;;;5011631;28;20064;-61
2021/04/03 06:58:03;;;;;;;11.55;2.40;;;9.40;76.90;;;;;;4994534;28;20152;-62
2021/04/03 07:00:30;;;;;;;9.75;2.55;;;9.80;75.90;;;;;;5011873;28;20057;-61
2021/04/03 07:03:20;;;;;;;14.10;4.38;;;9.80;75.90;;;;;;5012459;28;20340;-62
2021/04/03 07:05:46;;;;;;;10.00;2.70;;;10.00;75.10;;;;;;5011408;28;20030;-61
2021/04/03 07:08:12;;;;;;;10.57;3.00;;;10.20;74.20;;;;;;5011942;28;20033;-61
2021/04/03 07:10:39;;;;;;;10.35;2.40;;;10.20;74.00;;;;;;5011173;28;20383;-61
2021/04/03 07:13:09;;;;;;;9.35;3.17;;;10.10;74.60;;;;;;4994355;28;20033;-61
2021/04/03 07:15:34;;;;;;;7.10;2.50;;;10.30;73.90;;;;;;5011270;28;20062;-60
2021/04/03 07:18:00;;;;;;;7.35;2.03;;;10.60;73.10;;;;;;5011830;28;20446;-60
2021/04/03 07:20:30;;;;;;;6.22;1.75;;;11.10;71.70;;;;;;5011751;28;20025;-61
2021/04/03 07:23:10;;;;;;;7.97;1.63;;;11.10;70.60;;;;;;5011915;28;20025;-63
2021/04/03 07:25:38;;;;;;;8.27;2.17;;;11.20;68.50;;;;;;5011138;28;20106;-62
2021/04/03 07:28:05;;;;;;;5.68;1.90;;;10.90;68.20;;;;;;4993415;28;20026;-60
2021/04/03 07:30:39;;;;;;;12.07;4.30;;;11.00;67.80;;;;;;5010966;28;20034;-60
2021/04/03 07:33:22;;;;;;;14.98;2.90;;;11.20;67.30;;;;;;5011533;28;20030;-61
2021/04/03 07:35:53;;;;;;;6.15;2.33;;;11.30;66.70;;;;;;4993043;28;20220;-61
2021/04/03 07:38:34;;;;;;;8.50;2.00;;;11.00;66.10;;;;;;5011225;28;20046;-62
2021/04/03 07:41:16;;;;;;;8.60;1.90;;;11.20;65.90;;;;;;4993897;28;20030;-62
2021/04/03 07:43:44;;;;;;;9.68;1.95;;;11.50;64.80;;;;;;5010405;28;20044;-61
2021/04/03 07:46:36;;;;;;;8.15;1.75;;;11.40;63.70;;;;;;4993713;28;20029;-62
2021/04/03 07:49:02;;;;;;;11.55;2.88;;;11.70;63.00;;;;;;4993514;28;20030;-61
2021/04/03 07:51:28;;;;;;;9.90;2.78;;;11.60;62.90;;;;;;4992993;28;20033;-62
2021/04/03 07:53:58;;;;;;;9.38;2.40;;;11.90;62.70;;;;;;4992999;28;20037;-61
2021/04/03 07:56:28;;;;;;;11.60;2.85;;;12.30;62.10;;;;;;5011374;28;20454;-61
2021/04/03 07:58:55;;;;;;;4.90;1.83;;;12.50;62.00;;;;;;5010576;28;20145;-62
2021/04/03 08:01:23;;;;;;;8.35;2.75;;;12.70;62.30;;;;;;5011119;28;20030;-61
2021/04/03 08:04:00;;;;;;;6.95;1.90;;;12.90;60.40;;;;;;5010847;28;20112;-62
2021/04/03 08:06:33;;;;;;;5.75;2.45;;;13.10;60.30;;;;;;4992957;28;20073;-61
2021/04/03 08:09:09;;;;;;;11.82;2.78;;;13.00;60.40;;;;;;5010615;28;20478;-61
2021/04/03 08:11:35;;;;;;;10.32;1.92;;;13.10;60.30;;;;;;4994203;28;20026;-61
2021/04/03 08:14:02;;;;;;;12.65;2.03;;;13.40;61.00;;;;;;4992822;28;20537;-61
2021/04/03 08:16:29;;;;;;;9.43;2.58;;;13.80;59.30;;;;;;4993212;28;20133;-62
2021/04/03 08:18:57;;;;;;;7.07;1.80;;;13.90;58.40;;;;;;5010666;28;20096;-61
2021/04/03 08:21:24;;;;;;;7.13;2.05;;;13.70;58.70;;;;;;4992743;28;20037;-63
2021/04/03 08:23:55;;;;;;;10.20;2.17;;;13.80;58.70;;;;;;5010108;28;20117;-62
2021/04/03 08:26:33;;;;;;;9.68;1.92;;;14.10;57.80;;;;;;5010498;28;20061;-63
2021/04/03 08:28:59;;;;;;;9.23;2.58;;;14.00;58.80;;;;;;4993344;28;20042;-61
2021/04/03 08:31:27;;;;;;;10.30;1.83;;;14.20;57.30;;;;;;5010795;28;20033;-62
2021/04/03 08:33:57;;;;;;;10.38;2.85;;;14.20;57.70;;;;;;5009602;28;20103;-61
2021/04/03 08:36:30;;;;;;;7.33;2.07;;;14.40;57.60;;;;;;5010367;28;20032;-60
2021/04/03 08:39:00;;;;;;;6.15;1.83;;;14.40;57.70;;;;;;4992007;28;20076;-61
2021/04/03 08:41:28;;;;;;;8.07;1.80;;;14.70;56.50;;;;;;5010293;28;20025;-62
2021/04/03 08:43:55;;;;;;;11.48;2.60;;;14.90;57.30;;;;;;5009966;28;20054;-60
2021/04/03 08:46:22;;;;;;;6.13;2.03;;;15.00;55.60;;;;;;4992693;28;20037;-61
2021/04/03 08:48:54;;;;;;;10.07;2.10;;;15.00;55.80;;;;;;4992199;28;20088;-61
2021/04/03 08:51:19;;;;;;;5.43;1.98;;;15.10;55.50;;;;;;4992722;28;20084;-61
2021/04/03 08:53:50;;;;;;;7.53;2.17;;;15.60;55.20;;;;;;5009349;28;20109;-62
2021/04/03 08:56:24;;;;;;;14.77;4.78;;;15.70;55.00;;;;;;5010336;28;20040;-62
2021/04/03 08:58:51;;;;;;;6.00;2.28;;;15.40;54.70;;;;;;5009931;28;20120;-62
2021/04/03 09:01:18;;;;;;;6.65;2.00;;;16.10;54.80;;;;;;5010045;28;20072;-62
2021/04/03 09:03:47;;;;;;;7.90;1.80;;;16.00;53.80;;;;;;5010035;28;20379;-61
2021/04/03 09:06:13;;;;;;;8.23;2.13;;;15.90;53.60;;;;;;4992645;28;20045;-62
2021/04/03 09:08:38;;;;;;;5.38;2.00;;;16.30;53.50;;;;;;5009964;28;20038;-61
2021/04/03 09:11:04;;;;;;;8.88;1.92;;;16.10;54.30;;;;;;5010335;28;20025;-61
2021/04/03 09:13:40;;;;;;;7.18;2.40;;;15.80;53.90;;;;;;5010605;28;20026;-61
2021/04/03 09:16:15;;;;;;;9.55;3.83;;;16.50;52.60;;;;;;5010233;28;20117;-62
2021/04/03 09:18:42;;;;;;;7.50;1.92;;;17.00;60.40;;;;;;4975894;28;20057;-63
2021/04/03 09:21:21;;;;;;;10.57;2.88;;;16.40;51.40;;;;;;4976570;28;20461;-62
2021/04/03 09:23:51;;;;;;;9.30;2.30;;;16.60;52.20;;;;;;5009543;28;20357;-63
2021/04/03 09:26:33;;;;;;;8.85;2.55;;;17.00;51.20;;;;;;4992473;28;20041;-62
2021/04/03 09:29:09;;;;;;;7.75;2.25;;;17.10;51.10;;;;;;4991908;28;20221;-62
2021/04/03 09:31:42;;;;;;;12.43;3.13;;;17.10;50.40;;;;;;5010310;28;20022;-63
2021/04/03 09:34:08;;;;;;;9.60;2.28;;;17.10;50.30;;;;;;5010472;28;20018;-63
2021/04/03 09:36:50;;;;;;;11.57;3.50;;;17.00;50.10;;;;;;4992583;28;20109;-62
2021/04/03 09:39:19;;;;;;;10.63;3.20;;;17.50;50.60;;;;;;4996059;28;20033;-63
2021/04/03 09:41:54;;;;;;;11.88;3.58;;;17.70;49.90;;;;;;5013111;28;20061;-63
2021/04/03 09:44:20;;;;;;;8.18;1.95;;;18.10;49.50;;;;;;5013406;28;20037;-61
2021/04/03 09:46:46;;;;;;;9.30;2.25;;;18.30;49.80;;;;;;5012739;28;20379;-62
2021/04/03 09:49:12;;;;;;;7.40;2.30;;;18.40;48.70;;;;;;4995829;28;20049;-62
2021/04/03 09:51:38;;;;;;;7.97;2.45;;;18.70;48.00;;;;;;5012801;28;20030;-61
2021/04/03 09:54:07;;;;;;;7.30;2.03;;;18.70;48.00;;;;;;4995543;28;20386;-62
2021/04/03 09:56:33;;;;;;;8.15;2.60;;;18.60;48.60;;;;;;5013125;28;20033;-60
2021/04/03 09:58:59;;;;;;;10.73;3.35;;;18.90;47.80;;;;;;4994843;28;20045;-61
2021/04/03 10:01:26;;;;;;;12.88;2.85;;;18.60;47.10;;;;;;4995343;28;20100;-61
2021/04/03 10:03:53;;;;;;;6.72;2.28;;;18.80;47.60;;;;;;5011932;28;20062;-61
2021/04/03 10:06:19;;;;;;;10.45;2.53;;;19.20;48.30;;;;;;5011635;28;20045;-62
2021/04/03 10:08:45;;;;;;;9.45;2.35;;;18.80;46.70;;;;;;4994645;28;20026;-61
2021/04/03 10:11:10;;;;;;;7.25;2.55;;;18.70;47.70;;;;;;5013313;28;20037;-62
2021/04/03 10:13:36;;;;;;;8.65;3.00;;;19.00;46.50;;;;;;4995375;28;20053;-61
2021/04/03 10:16:02;;;;;;;7.45;2.17;;;19.20;46.90;;;;;;5012150;28;20364;-61
2021/04/03 10:18:28;;;;;;;10.55;2.33;;;18.90;46.30;;;;;;4995163;28;20029;-62
2021/04/03 10:20:53;;;;;;;12.38;2.40;;;19.10;46.60;;;;;;4994614;28;20107;-62
2021/04/03 10:23:19;;;;;;;8.55;3.20;;;19.20;46.20;;;;;;4994940;28;20029;-62
2021/04/03 10:25:45;;;;;;;5.72;2.50;;;19.50;46.00;;;;;;5012267;28;20414;-62
2021/04/03 10:28:10;;;;;;;10.65;2.55;;;19.50;45.50;;;;;;4995176;28;20037;-62
2021/04/03 10:30:36;;;;;;;7.00;2.65;;;19.60;46.00;;;;;;5012752;28;20133;-62
2021/04/03 10:33:02;;;;;;;5.10;1.83;;;19.30;45.90;;;;;;5011691;28;20064;-61
2021/04/03 10:35:28;;;;;;;7.40;2.35;;;19.60;46.20;;;;;;4995104;28;20083;-65
2021/04/03 10:37:53;;;;;;;3.90;1.83;;;19.30;45.50;;;;;;5011877;28;20457;-62
2021/04/03 10:40:19;;;;;;;6.47;2.42;;;19.50;44.70;;;;;;5012059;28;20414;-61
2021/04/03 10:42:45;;;;;;;6.15;1.95;;;19.80;44.50;;;;;;5011554;28;20426;-62
2021/04/03 10:45:11;;;;;;;7.28;1.95;;;19.70;43.40;;;;;;5012092;28;20482;-63
2021/04/03 10:47:36;;;;;;;11.23;1.80;;;19.70;44.30;;;;;;5011969;28;20460;-62
2021/04/03 10:50:03;;;;;;;7.10;2.25;;;20.00;45.20;;;;;;5011410;28;20037;-61
2021/04/03 10:52:28;;;;;;;8.93;2.35;;;19.90;44.40;;;;;;5012127;28;20026;-62
2021/04/03 10:54:54;;;;;;;7.28;2.75;;;20.10;44.30;;;;;;5011977;28;20036;-61
2021/04/03 10:57:22;;;;;;;4.85;1.50;;;20.10;44.80;;;;;;4994415;28;20048;-62
2021/04/03 10:59:49;;;;;;;6.93;2.13;;;19.90;43.60;;;;;;4993263;28;20032;-62
2021/04/03 11:02:15;;;;;;;11.93;1.77;;;20.50;43.70;;;;;;5012991;28;20026;-62
2021/04/03 11:04:41;;;;;;;6.50;1.80;;;20.60;44.10;;;;;;5003552;28;20048;-62
2021/04/03 11:07:07;;;;;;;7.55;2.60;;;20.90;43.80;;;;;;5008430;28;20137;-63
2021/04/03 11:09:32;;;;;;;10.05;2.28;;;21.20;43.70;;;;;;5011334;28;20113;-62
2021/04/03 11:11:58;;;;;;;8.05;2.95;;;21.20;42.70;;;;;;5011647;28;20029;-66
2021/04/03 11:14:24;;;;;;;5.55;1.48;;;20.60;42.40;;;;;;4994457;28;20030;-63
2021/04/03 11:16:50;;;;;;;8.68;3.00;;;20.30;42.70;;;;;;4993505;28;20380;-61
2021/04/03 11:19:15;;;;;;;11.82;1.90;;;20.90;43.20;;;;;;4993325;28;20026;-61
2021/04/03 11:21:42;;;;;;;5.28;1.75;;;21.40;42.50;;;;;;5011118;28;20105;-62
2021/04/03 11:24:08;;;;;;;7.53;2.47;;;20.70;42.00;;;;;;5012752;28;20036;-64
2021/04/03 11:26:34;;;;;;;12.73;1.95;;;20.30;42.10;;;;;;5011348;28;20037;-61
2021/04/03 11:29:01;;;;;;;4.15;1.70;;;19.40;42.20;;;;;;4994222;28;20117;-61
2021/04/03 11:31:26;;;;;;;6.80;1.80;;;19.80;41.90;;;;;;5002139;28;20052;-62
2021/04/03 11:33:53;;;;;;;7.93;2.15;;;19.80;41.60;;;;;;4998344;28;20053;-62
2021/04/03 11:36:19;;;;;;;7.53;1.73;;;20.00;42.00;;;;;;4984182;28;20096;-61
2021/04/03 11:38:46;;;;;;;6.80;1.48;;;20.30;42.70;;;;;;4983954;28;20050;-61
2021/04/03 11:41:11;;;;;;;7.18;1.52;;;21.00;41.50;;;;;;4997314;28;20021;-62
2021/04/03 11:43:37;;;;;;;6.18;1.67;;;20.40;41.00;;;;;;4989217;28;20462;-62
2021/04/03 11:46:03;;;;;;;6.10;1.70;;;20.80;41.20;;;;;;5009326;28;20483;-62
2021/04/03 11:48:28;;;;;;;7.50;1.25;;;21.00;41.00;;;;;;4999560;28;20415;-62
2021/04/03 11:50:54;;;;;;;3.90;1.25;;;21.70;40.90;;;;;;4998699;28;20104;-62
2021/04/03 11:53:20;;;;;;;6.13;1.55;;;21.10;39.60;;;;;;5001964;28;20101;-63
2021/04/03 11:55:46;;;;;;;4.57;1.60;;;20.70;40.10;;;;;;4980717;28;20030;-63
2021/04/03 11:58:12;;;;;;;3.92;1.20;;;21.20;40.20;;;;;;4996849;28;20049;-62
2021/04/03 12:00:37;;;;;;;8.65;1.55;;;21.10;38.80;;;;;;4999432;28;20042;-63
2021/04/03 12:03:03;;;;;;;5.85;0.85;;;21.20;38.50;;;;;;5001168;28;20092;-62
2021/04/03 12:05:29;;;;;;;3.92;1.15;;;20.80;38.30;;;;;;4982883;28;20036;-61
2021/04/03 12:07:56;;;;;;;4.38;1.20;;;20.40;38.60;;;;;;4981693;28;20121;-62
2021/04/03 12:10:22;;;;;;;5.47;1.58;;;20.50;38.50;;;;;;4999200;28;20109;-62
2021/04/03 12:12:48;;;;;;;4.13;0.70;;;20.60;38.30;;;;;;4980375;28;20144;-63
2021/04/03 12:15:15;;;;;;;3.65;0.93;;;21.20;36.70;;;;;;4983483;28;20431;-63
2021/04/03 12:17:41;;;;;;;3.55;0.90;;;21.50;36.20;;;;;;5001071;28;20099;-61
2021/04/03 12:20:09;;;;;;;3.47;0.90;;;21.60;36.30;;;;;;4996515;28;20098;-61
2021/04/03 12:22:35;;;;;;;2.85;0.70;;;21.70;36.60;;;;;;4999883;28;20049;-62
2021/04/03 12:25:03;;;;;;;3.28;0.95;;;22.10;35.40;;;;;;5000583;28;20038;-62
2021/04/03 12:27:28;;;;;;;5.35;0.52;;;22.30;34.70;;;;;;4982725;28;20026;-63
2021/04/03 12:29:54;;;;;;;3.08;1.00;;;21.70;34.50;;;;;;5003195;28;20475;-63
2021/04/03 12:32:21;;;;;;;5.72;0.63;;;21.80;34.90;;;;;;4985143;28;20464;-61
2021/04/03 12:34:47;;;;;;;1.65;1.05;;;22.40;35.60;;;;;;4981392;28;20026;-62
2021/04/03 12:37:15;;;;;;;12.23;1.50;;;22.60;34.60;;;;;;4996654;28;20046;-62
2021/04/03 12:39:42;;;;;;;4.07;1.10;;;22.30;34.80;;;;;;4981872;28;20035;-62
2021/04/03 12:42:07;;;;;;;6.22;0.93;;;21.60;36.00;;;;;;4980869;28;20291;-61
2021/04/03 12:44:34;;;;;;;4.72;1.52;;;21.50;36.80;;;;;;5000798;28;20483;-61
2021/04/03 12:46:59;;;;;;;10.02;1.80;;;21.50;37.10;;;;;;5006637;28;20439;-67
2021/04/03 12:49:25;;;;;;;4.70;1.55;;;22.20;42.90;;;;;;4982198;28;20117;-67
2021/04/03 12:51:51;;;;;;;4.32;1.40;;;22.10;39.20;;;;;;4981001;28;20121;-67
2021/04/03 12:54:17;;;;;;;3.55;1.58;;;21.90;38.30;;;;;;4980456;28;20023;-66
2021/04/03 12:56:43;;;;;;;4.80;1.10;;;22.20;37.40;;;;;;4999700;28;20087;-67
2021/04/03 12:59:08;;;;;;;5.82;2.47;;;22.00;37.40;;;;;;4980817;28;20132;-68